sensor_id;sensor_type;location;lat;lon;timestamp;P1;durP1;ratioP1;P2;durP2;ratioP2
6388;SDS011;3227;42.654;23.360;2022-10-30T00:00:50;16.83;;;8.40;;
6388;SDS011;3227;42.654;23.360;2022-10-30T00:03:17;15.40;;;8.60;;
6388;SDS011;3227;42.654;23.360;2022-10-30T00:05:45;16.30;;;9.03;;
6388;SDS011;3227;42.654;23.360;2022-10-30T00:08:13;14.20;;;8.50;;
6388;SDS011;3227;42.654;23.360;2022-10-30T00:10:42;16.87;;;8.27;;
6388;SDS011;3227;42.654;23.360;2022-10-30T00:13:10;14.60;;;8.27;;
6388;SDS011;3227;42.654;23.360;2022-10-30T00:15:38;12.13;;;7.80;;
6388;SDS011;3227;42.654;23.360;2022-10-30T00:18:06;15.30;;;8.23;;
6388;SDS011;3227;42.654;23.360;2022-10-30T00:20:34;14.53;;;8.30;;
6388;SDS011;3227;42.654;23.360;2022-10-30T00:23:01;16.90;;;8.60;;
6388;SDS011;3227;42.654;23.360;2022-10-30T00:25:28;11.90;;;7.37;;
6388;SDS011;3227;42.654;23.360;2022-10-30T00:27:55;13.87;;;7.43;;
6388;SDS011;3227;42.654;23.360;2022-10-30T00:30:21;14.40;;;7.80;;
6388;SDS011;3227;42.654;23.360;2022-10-30T00:32:48;12.73;;;7.27;;
6388;SDS011;3227;42.654;23.360;2022-10-30T00:35:16;13.30;;;7.70;;
6388;SDS011;3227;42.654;23.360;2022-10-30T00:37:43;15.80;;;8.80;;
6388;SDS011;3227;42.654;23.360;2022-10-30T00:40:11;14.57;;;8.97;;
6388;SDS011;3227;42.654;23.360;2022-10-30T00:42:40;19.13;;;9.00;;
6388;SDS011;3227;42.654;23.360;2022-10-30T00:45:08;18.10;;;8.80;;
6388;SDS011;3227;42.654;23.360;2022-10-30T00:47:37;14.37;;;9.13;;
6388;SDS011;3227;42.654;23.360;2022-10-30T00:50:08;13.50;;;8.23;;
6388;SDS011;3227;42.654;23.360;2022-10-30T00:52:41;17.07;;;9.57;;
6388;SDS011;3227;42.654;23.360;2022-10-30T00:55:13;13.43;;;8.47;;
6388;SDS011;3227;42.654;23.360;2022-10-30T00:57:42;16.13;;;8.90;;
6388;SDS011;3227;42.654;23.360;2022-10-30T01:00:11;13.80;;;9.03;;
6388;SDS011;3227;42.654;23.360;2022-10-30T01:02:38;17.53;;;8.90;;
6388;SDS011;3227;42.654;23.360;2022-10-30T01:05:08;19.10;;;9.93;;
6388;SDS011;3227;42.654;23.360;2022-10-30T01:07:40;17.70;;;9.60;;
6388;SDS011;3227;42.654;23.360;2022-10-30T01:10:07;20.17;;;9.70;;
6388;SDS011;3227;42.654;23.360;2022-10-30T01:12:35;15.13;;;9.50;;
6388;SDS011;3227;42.654;23.360;2022-10-30T01:15:03;15.43;;;9.13;;
6388;SDS011;3227;42.654;23.360;2022-10-30T01:17:37;15.27;;;8.73;;
6388;SDS011;3227;42.654;23.360;2022-10-30T01:20:32;22.77;;;10.23;;
6388;SDS011;3227;42.654;23.360;2022-10-30T01:23:12;19.07;;;9.27;;
6388;SDS011;3227;42.654;23.360;2022-10-30T01:25:50;15.93;;;9.83;;
6388;SDS011;3227;42.654;23.360;2022-10-30T01:28:27;17.57;;;9.43;;
6388;SDS011;3227;42.654;23.360;2022-10-30T01:31:04;14.63;;;9.57;;
6388;SDS011;3227;42.654;23.360;2022-10-30T01:33:46;18.33;;;9.47;;
6388;SDS011;3227;42.654;23.360;2022-10-30T01:36:21;19.87;;;9.20;;
6388;SDS011;3227;42.654;23.360;2022-10-30T01:38:55;16.87;;;9.87;;
6388;SDS011;3227;42.654;23.360;2022-10-30T01:41:25;18.30;;;8.77;;
6388;SDS011;3227;42.654;23.360;2022-10-30T01:43:53;14.87;;;9.23;;
6388;SDS011;3227;42.654;23.360;2022-10-30T01:46:30;17.00;;;9.23;;
6388;SDS011;3227;42.654;23.360;2022-10-30T01:49:13;17.27;;;9.87;;
6388;SDS011;3227;42.654;23.360;2022-10-30T01:51:53;19.13;;;9.93;;
6388;SDS011;3227;42.654;23.360;2022-10-30T01:54:35;16.40;;;9.13;;
6388;SDS011;3227;42.654;23.360;2022-10-30T01:57:07;15.57;;;9.70;;
6388;SDS011;3227;42.654;23.360;2022-10-30T01:59:42;18.67;;;9.30;;
6388;SDS011;3227;42.654;23.360;2022-10-30T02:02:12;18.77;;;10.43;;
6388;SDS011;3227;42.654;23.360;2022-10-30T02:04:39;17.77;;;9.83;;
6388;SDS011;3227;42.654;23.360;2022-10-30T02:07:07;17.73;;;10.20;;
6388;SDS011;3227;42.654;23.360;2022-10-30T02:09:36;15.30;;;9.50;;
6388;SDS011;3227;42.654;23.360;2022-10-30T02:12:04;17.50;;;10.33;;
6388;SDS011;3227;42.654;23.360;2022-10-30T02:14:32;18.03;;;9.23;;
6388;SDS011;3227;42.654;23.360;2022-10-30T02:17:04;15.30;;;9.10;;
6388;SDS011;3227;42.654;23.360;2022-10-30T02:19:33;14.53;;;9.43;;
6388;SDS011;3227;42.654;23.360;2022-10-30T02:22:02;18.27;;;9.70;;
6388;SDS011;3227;42.654;23.360;2022-10-30T02:24:29;14.70;;;9.13;;
6388;SDS011;3227;42.654;23.360;2022-10-30T02:26:57;24.10;;;10.63;;
6388;SDS011;3227;42.654;23.360;2022-10-30T02:29:24;15.47;;;10.37;;
6388;SDS011;3227;42.654;23.360;2022-10-30T02:31:51;16.07;;;10.30;;
6388;SDS011;3227;42.654;23.360;2022-10-30T02:34:17;20.23;;;10.27;;
6388;SDS011;3227;42.654;23.360;2022-10-30T02:36:44;13.67;;;8.23;;
6388;SDS011;3227;42.654;23.360;2022-10-30T02:39:12;15.23;;;8.00;;
6388;SDS011;3227;42.654;23.360;2022-10-30T02:41:39;15.13;;;8.87;;
6388;SDS011;3227;42.654;23.360;2022-10-30T02:44:06;12.37;;;8.23;;
6388;SDS011;3227;42.654;23.360;2022-10-30T02:46:33;14.67;;;8.23;;
6388;SDS011;3227;42.654;23.360;2022-10-30T02:49:00;17.23;;;8.80;;
6388;SDS011;3227;42.654;23.360;2022-10-30T02:51:27;16.33;;;9.33;;
6388;SDS011;3227;42.654;23.360;2022-10-30T02:53:53;16.70;;;9.03;;
6388;SDS011;3227;42.654;23.360;2022-10-30T02:56:21;12.30;;;8.87;;
6388;SDS011;3227;42.654;23.360;2022-10-30T02:58:48;18.83;;;8.87;;
6388;SDS011;3227;42.654;23.360;2022-10-30T03:01:16;16.10;;;8.90;;
6388;SDS011;3227;42.654;23.360;2022-10-30T03:03:44;13.83;;;8.13;;
6388;SDS011;3227;42.654;23.360;2022-10-30T03:06:13;17.83;;;9.23;;
6388;SDS011;3227;42.654;23.360;2022-10-30T03:08:41;16.83;;;8.87;;
6388;SDS011;3227;42.654;23.360;2022-10-30T03:11:08;13.30;;;8.17;;
6388;SDS011;3227;42.654;23.360;2022-10-30T03:13:38;12.47;;;8.63;;
6388;SDS011;3227;42.654;23.360;2022-10-30T03:16:07;18.50;;;8.93;;
6388;SDS011;3227;42.654;23.360;2022-10-30T03:18:34;15.60;;;8.17;;
6388;SDS011;3227;42.654;23.360;2022-10-30T03:21:02;16.43;;;8.73;;
6388;SDS011;3227;42.654;23.360;2022-10-30T03:23:30;12.30;;;8.60;;
6388;SDS011;3227;42.654;23.360;2022-10-30T03:25:57;19.17;;;8.53;;
6388;SDS011;3227;42.654;23.360;2022-10-30T03:28:25;12.47;;;8.37;;
6388;SDS011;3227;42.654;23.360;2022-10-30T03:30:58;16.00;;;8.33;;
6388;SDS011;3227;42.654;23.360;2022-10-30T03:33:25;15.43;;;9.07;;
6388;SDS011;3227;42.654;23.360;2022-10-30T03:35:52;14.13;;;8.90;;
6388;SDS011;3227;42.654;23.360;2022-10-30T03:38:19;16.03;;;10.00;;
6388;SDS011;3227;42.654;23.360;2022-10-30T03:40:46;13.60;;;9.23;;
6388;SDS011;3227;42.654;23.360;2022-10-30T03:43:12;16.53;;;9.03;;
6388;SDS011;3227;42.654;23.360;2022-10-30T03:45:39;13.77;;;9.70;;
6388;SDS011;3227;42.654;23.360;2022-10-30T03:48:13;16.57;;;9.53;;
6388;SDS011;3227;42.654;23.360;2022-10-30T03:50:40;15.90;;;8.57;;
6388;SDS011;3227;42.654;23.360;2022-10-30T03:53:06;13.57;;;8.73;;
6388;SDS011;3227;42.654;23.360;2022-10-30T03:55:33;12.53;;;9.23;;
6388;SDS011;3227;42.654;23.360;2022-10-30T03:58:00;14.63;;;9.20;;
6388;SDS011;3227;42.654;23.360;2022-10-30T04:00:27;14.30;;;8.90;;
6388;SDS011;3227;42.654;23.360;2022-10-30T04:02:54;14.57;;;8.90;;
6388;SDS011;3227;42.654;23.360;2022-10-30T04:05:22;14.47;;;8.87;;
6388;SDS011;3227;42.654;23.360;2022-10-30T04:07:53;17.43;;;10.13;;
6388;SDS011;3227;42.654;23.360;2022-10-30T04:10:21;15.57;;;9.10;;
6388;SDS011;3227;42.654;23.360;2022-10-30T04:12:48;13.87;;;9.03;;
6388;SDS011;3227;42.654;23.360;2022-10-30T04:15:15;13.83;;;9.37;;
6388;SDS011;3227;42.654;23.360;2022-10-30T04:17:46;16.63;;;9.87;;
6388;SDS011;3227;42.654;23.360;2022-10-30T04:20:14;17.83;;;9.60;;
6388;SDS011;3227;42.654;23.360;2022-10-30T04:22:42;14.87;;;9.57;;
6388;SDS011;3227;42.654;23.360;2022-10-30T04:25:09;14.77;;;9.33;;
6388;SDS011;3227;42.654;23.360;2022-10-30T04:27:39;15.97;;;9.57;;
6388;SDS011;3227;42.654;23.360;2022-10-30T04:30:07;17.83;;;10.10;;
6388;SDS011;3227;42.654;23.360;2022-10-30T04:32:35;19.23;;;9.77;;
6388;SDS011;3227;42.654;23.360;2022-10-30T04:35:02;16.70;;;9.27;;
6388;SDS011;3227;42.654;23.360;2022-10-30T04:37:29;18.13;;;9.87;;
6388;SDS011;3227;42.654;23.360;2022-10-30T04:39:57;14.83;;;9.43;;
6388;SDS011;3227;42.654;23.360;2022-10-30T04:42:24;17.00;;;10.00;;
6388;SDS011;3227;42.654;23.360;2022-10-30T04:44:51;13.80;;;9.17;;
6388;SDS011;3227;42.654;23.360;2022-10-30T04:47:18;14.33;;;9.63;;
6388;SDS011;3227;42.654;23.360;2022-10-30T04:49:45;16.90;;;10.80;;
6388;SDS011;3227;42.654;23.360;2022-10-30T04:52:11;15.00;;;9.97;;
6388;SDS011;3227;42.654;23.360;2022-10-30T04:54:38;15.77;;;10.70;;
6388;SDS011;3227;42.654;23.360;2022-10-30T04:57:06;17.90;;;10.50;;
6388;SDS011;3227;42.654;23.360;2022-10-30T04:59:33;18.17;;;11.17;;
6388;SDS011;3227;42.654;23.360;2022-10-30T05:02:00;19.97;;;10.60;;
6388;SDS011;3227;42.654;23.360;2022-10-30T05:04:27;18.40;;;10.93;;
6388;SDS011;3227;42.654;23.360;2022-10-30T05:06:53;20.33;;;11.10;;
6388;SDS011;3227;42.654;23.360;2022-10-30T05:09:20;17.77;;;11.10;;
6388;SDS011;3227;42.654;23.360;2022-10-30T05:11:47;16.37;;;11.13;;
6388;SDS011;3227;42.654;23.360;2022-10-30T05:14:15;14.77;;;9.57;;
6388;SDS011;3227;42.654;23.360;2022-10-30T05:16:42;17.27;;;10.03;;
6388;SDS011;3227;42.654;23.360;2022-10-30T05:19:09;17.43;;;12.40;;
6388;SDS011;3227;42.654;23.360;2022-10-30T05:21:36;21.83;;;12.53;;
6388;SDS011;3227;42.654;23.360;2022-10-30T05:24:02;30.53;;;15.93;;
6388;SDS011;3227;42.654;23.360;2022-10-30T05:26:30;28.67;;;15.77;;
6388;SDS011;3227;42.654;23.360;2022-10-30T05:28:56;30.10;;;15.17;;
6388;SDS011;3227;42.654;23.360;2022-10-30T05:31:25;27.17;;;15.37;;
6388;SDS011;3227;42.654;23.360;2022-10-30T05:33:51;23.53;;;14.60;;
6388;SDS011;3227;42.654;23.360;2022-10-30T05:36:18;25.33;;;14.20;;
6388;SDS011;3227;42.654;23.360;2022-10-30T05:38:45;21.87;;;13.07;;
6388;SDS011;3227;42.654;23.360;2022-10-30T05:41:12;24.73;;;13.00;;
6388;SDS011;3227;42.654;23.360;2022-10-30T05:43:39;22.27;;;12.37;;
6388;SDS011;3227;42.654;23.360;2022-10-30T05:46:06;24.47;;;13.60;;
6388;SDS011;3227;42.654;23.360;2022-10-30T05:48:34;28.13;;;14.40;;
6388;SDS011;3227;42.654;23.360;2022-10-30T05:51:01;28.10;;;14.33;;
6388;SDS011;3227;42.654;23.360;2022-10-30T05:53:28;26.00;;;14.27;;
6388;SDS011;3227;42.654;23.360;2022-10-30T05:55:55;35.80;;;16.33;;
6388;SDS011;3227;42.654;23.360;2022-10-30T05:58:23;38.43;;;16.80;;
6388;SDS011;3227;42.654;23.360;2022-10-30T06:00:50;28.70;;;15.90;;
6388;SDS011;3227;42.654;23.360;2022-10-30T06:03:17;26.73;;;15.10;;
6388;SDS011;3227;42.654;23.360;2022-10-30T06:05:45;25.37;;;14.20;;
6388;SDS011;3227;42.654;23.360;2022-10-30T06:08:13;26.40;;;14.00;;
6388;SDS011;3227;42.654;23.360;2022-10-30T06:10:41;25.83;;;13.33;;
6388;SDS011;3227;42.654;23.360;2022-10-30T06:13:08;29.47;;;15.27;;
6388;SDS011;3227;42.654;23.360;2022-10-30T06:15:36;29.80;;;14.57;;
6388;SDS011;3227;42.654;23.360;2022-10-30T06:18:02;24.40;;;13.17;;
6388;SDS011;3227;42.654;23.360;2022-10-30T06:20:30;24.40;;;12.30;;
6388;SDS011;3227;42.654;23.360;2022-10-30T06:22:58;27.37;;;12.73;;
6388;SDS011;3227;42.654;23.360;2022-10-30T06:25:26;26.60;;;12.47;;
6388;SDS011;3227;42.654;23.360;2022-10-30T06:27:54;21.87;;;11.77;;
6388;SDS011;3227;42.654;23.360;2022-10-30T06:30:21;21.53;;;12.17;;
6388;SDS011;3227;42.654;23.360;2022-10-30T06:32:48;18.70;;;12.47;;
6388;SDS011;3227;42.654;23.360;2022-10-30T06:35:15;18.83;;;11.97;;
6388;SDS011;3227;42.654;23.360;2022-10-30T06:37:45;21.97;;;12.30;;
6388;SDS011;3227;42.654;23.360;2022-10-30T06:40:14;22.63;;;12.87;;
6388;SDS011;3227;42.654;23.360;2022-10-30T06:42:41;24.27;;;12.93;;
6388;SDS011;3227;42.654;23.360;2022-10-30T06:45:09;24.03;;;13.27;;
6388;SDS011;3227;42.654;23.360;2022-10-30T06:47:36;17.47;;;11.73;;
6388;SDS011;3227;42.654;23.360;2022-10-30T06:50:04;19.40;;;12.80;;
6388;SDS011;3227;42.654;23.360;2022-10-30T06:52:32;19.93;;;12.50;;
6388;SDS011;3227;42.654;23.360;2022-10-30T06:54:59;20.40;;;12.67;;
6388;SDS011;3227;42.654;23.360;2022-10-30T06:57:28;22.90;;;13.00;;
6388;SDS011;3227;42.654;23.360;2022-10-30T06:59:54;21.13;;;13.80;;
6388;SDS011;3227;42.654;23.360;2022-10-30T07:02:21;25.67;;;13.97;;
6388;SDS011;3227;42.654;23.360;2022-10-30T07:04:48;25.43;;;14.87;;
6388;SDS011;3227;42.654;23.360;2022-10-30T07:07:15;27.93;;;16.60;;
6388;SDS011;3227;42.654;23.360;2022-10-30T07:09:42;23.37;;;15.03;;
6388;SDS011;3227;42.654;23.360;2022-10-30T07:12:10;26.17;;;14.80;;
6388;SDS011;3227;42.654;23.360;2022-10-30T07:14:39;27.37;;;15.47;;
6388;SDS011;3227;42.654;23.360;2022-10-30T07:17:11;27.00;;;16.03;;
6388;SDS011;3227;42.654;23.360;2022-10-30T07:19:38;27.57;;;15.83;;
6388;SDS011;3227;42.654;23.360;2022-10-30T07:22:05;26.83;;;15.80;;
6388;SDS011;3227;42.654;23.360;2022-10-30T07:24:31;23.57;;;15.13;;
6388;SDS011;3227;42.654;23.360;2022-10-30T07:26:58;24.87;;;16.27;;
6388;SDS011;3227;42.654;23.360;2022-10-30T07:29:25;29.50;;;14.63;;
6388;SDS011;3227;42.654;23.360;2022-10-30T07:31:53;27.43;;;14.93;;
6388;SDS011;3227;42.654;23.360;2022-10-30T07:34:20;28.57;;;14.33;;
6388;SDS011;3227;42.654;23.360;2022-10-30T07:36:47;27.13;;;16.30;;
6388;SDS011;3227;42.654;23.360;2022-10-30T07:39:14;23.70;;;14.90;;
6388;SDS011;3227;42.654;23.360;2022-10-30T07:41:41;22.60;;;14.33;;
6388;SDS011;3227;42.654;23.360;2022-10-30T07:44:07;17.37;;;13.50;;
6388;SDS011;3227;42.654;23.360;2022-10-30T07:46:34;25.17;;;14.37;;
6388;SDS011;3227;42.654;23.360;2022-10-30T07:49:02;19.97;;;13.43;;
6388;SDS011;3227;42.654;23.360;2022-10-30T07:51:29;22.17;;;13.87;;
6388;SDS011;3227;42.654;23.360;2022-10-30T07:53:56;19.63;;;12.50;;
6388;SDS011;3227;42.654;23.360;2022-10-30T07:56:23;19.50;;;13.93;;
6388;SDS011;3227;42.654;23.360;2022-10-30T07:58:49;17.77;;;11.90;;
6388;SDS011;3227;42.654;23.360;2022-10-30T08:01:16;20.73;;;13.10;;
6388;SDS011;3227;42.654;23.360;2022-10-30T08:03:43;23.07;;;12.93;;
6388;SDS011;3227;42.654;23.360;2022-10-30T08:06:11;19.47;;;13.13;;
6388;SDS011;3227;42.654;23.360;2022-10-30T08:08:38;21.73;;;13.73;;
6388;SDS011;3227;42.654;23.360;2022-10-30T08:11:05;21.83;;;13.33;;
6388;SDS011;3227;42.654;23.360;2022-10-30T08:13:31;19.43;;;13.27;;
6388;SDS011;3227;42.654;23.360;2022-10-30T08:15:58;18.63;;;13.03;;
6388;SDS011;3227;42.654;23.360;2022-10-30T08:18:25;21.77;;;13.37;;
6388;SDS011;3227;42.654;23.360;2022-10-30T08:20:52;20.70;;;13.83;;
6388;SDS011;3227;42.654;23.360;2022-10-30T08:23:20;18.83;;;13.00;;
6388;SDS011;3227;42.654;23.360;2022-10-30T08:25:47;24.07;;;13.93;;
6388;SDS011;3227;42.654;23.360;2022-10-30T08:28:14;18.23;;;12.43;;
6388;SDS011;3227;42.654;23.360;2022-10-30T08:30:40;21.57;;;12.30;;
6388;SDS011;3227;42.654;23.360;2022-10-30T08:33:09;23.03;;;12.63;;
6388;SDS011;3227;42.654;23.360;2022-10-30T08:35:45;22.43;;;13.20;;
6388;SDS011;3227;42.654;23.360;2022-10-30T08:38:12;19.10;;;12.60;;
6388;SDS011;3227;42.654;23.360;2022-10-30T08:40:40;15.70;;;11.97;;
6388;SDS011;3227;42.654;23.360;2022-10-30T08:43:08;18.27;;;12.43;;
6388;SDS011;3227;42.654;23.360;2022-10-30T08:45:35;22.67;;;12.50;;
6388;SDS011;3227;42.654;23.360;2022-10-30T08:48:02;17.80;;;12.43;;
6388;SDS011;3227;42.654;23.360;2022-10-30T08:50:31;23.00;;;12.93;;
6388;SDS011;3227;42.654;23.360;2022-10-30T08:52:59;21.53;;;12.93;;
6388;SDS011;3227;42.654;23.360;2022-10-30T08:55:27;25.13;;;12.83;;
6388;SDS011;3227;42.654;23.360;2022-10-30T08:57:55;21.70;;;13.60;;
6388;SDS011;3227;42.654;23.360;2022-10-30T09:00:22;19.03;;;12.70;;
6388;SDS011;3227;42.654;23.360;2022-10-30T09:02:49;18.17;;;12.43;;
6388;SDS011;3227;42.654;23.360;2022-10-30T09:05:16;20.27;;;12.60;;
6388;SDS011;3227;42.654;23.360;2022-10-30T09:07:43;21.33;;;13.40;;
6388;SDS011;3227;42.654;23.360;2022-10-30T09:10:09;18.93;;;13.60;;
6388;SDS011;3227;42.654;23.360;2022-10-30T09:12:37;18.03;;;12.83;;
6388;SDS011;3227;42.654;23.360;2022-10-30T09:15:06;23.90;;;13.40;;
6388;SDS011;3227;42.654;23.360;2022-10-30T09:17:33;24.90;;;13.43;;
6388;SDS011;3227;42.654;23.360;2022-10-30T09:20:00;22.37;;;14.30;;
6388;SDS011;3227;42.654;23.360;2022-10-30T09:22:26;25.35;;;15.05;;
6388;SDS011;3227;42.654;23.360;2022-10-30T09:24:53;20.20;;;13.77;;
6388;SDS011;3227;42.654;23.360;2022-10-30T09:27:20;19.20;;;13.83;;
6388;SDS011;3227;42.654;23.360;2022-10-30T09:29:47;25.47;;;15.27;;
6388;SDS011;3227;42.654;23.360;2022-10-30T09:32:15;21.80;;;13.87;;
6388;SDS011;3227;42.654;23.360;2022-10-30T09:34:42;18.23;;;13.47;;
6388;SDS011;3227;42.654;23.360;2022-10-30T09:37:08;26.07;;;14.63;;
6388;SDS011;3227;42.654;23.360;2022-10-30T09:39:35;21.73;;;14.63;;
6388;SDS011;3227;42.654;23.360;2022-10-30T09:42:09;22.73;;;14.00;;
6388;SDS011;3227;42.654;23.360;2022-10-30T09:44:49;23.70;;;15.50;;
6388;SDS011;3227;42.654;23.360;2022-10-30T09:47:28;25.63;;;14.97;;
6388;SDS011;3227;42.654;23.360;2022-10-30T09:50:06;26.50;;;14.53;;
6388;SDS011;3227;42.654;23.360;2022-10-30T09:52:45;21.73;;;13.57;;
6388;SDS011;3227;42.654;23.360;2022-10-30T09:55:26;20.60;;;13.60;;
6388;SDS011;3227;42.654;23.360;2022-10-30T09:58:01;27.03;;;14.10;;
6388;SDS011;3227;42.654;23.360;2022-10-30T10:00:37;19.93;;;13.67;;
6388;SDS011;3227;42.654;23.360;2022-10-30T10:03:18;19.77;;;12.57;;
6388;SDS011;3227;42.654;23.360;2022-10-30T10:05:58;22.27;;;11.97;;
6388;SDS011;3227;42.654;23.360;2022-10-30T10:08:29;16.10;;;11.20;;
6388;SDS011;3227;42.654;23.360;2022-10-30T10:11:02;20.27;;;12.00;;
6388;SDS011;3227;42.654;23.360;2022-10-30T10:13:38;18.03;;;11.50;;
6388;SDS011;3227;42.654;23.360;2022-10-30T10:16:12;16.53;;;10.93;;
6388;SDS011;3227;42.654;23.360;2022-10-30T10:18:46;16.70;;;11.10;;
6388;SDS011;3227;42.654;23.360;2022-10-30T10:21:23;16.50;;;9.97;;
6388;SDS011;3227;42.654;23.360;2022-10-30T10:23:53;14.03;;;9.03;;
6388;SDS011;3227;42.654;23.360;2022-10-30T10:26:28;17.87;;;8.83;;
6388;SDS011;3227;42.654;23.360;2022-10-30T10:35:22;12.77;;;8.20;;
6388;SDS011;3227;42.654;23.360;2022-10-30T10:38:02;14.00;;;7.80;;
6388;SDS011;3227;42.654;23.360;2022-10-30T10:40:39;16.10;;;8.93;;
6388;SDS011;3227;42.654;23.360;2022-10-30T10:43:19;17.77;;;8.97;;
6388;SDS011;3227;42.654;23.360;2022-10-30T10:45:55;15.43;;;8.20;;
6388;SDS011;3227;42.654;23.360;2022-10-30T10:48:37;13.27;;;7.80;;
6388;SDS011;3227;42.654;23.360;2022-10-30T10:51:15;15.30;;;8.37;;
6388;SDS011;3227;42.654;23.360;2022-10-30T10:53:45;14.47;;;8.67;;
6388;SDS011;3227;42.654;23.360;2022-10-30T10:56:19;16.97;;;9.10;;
6388;SDS011;3227;42.654;23.360;2022-10-30T10:58:52;17.75;;;8.98;;
6388;SDS011;3227;42.654;23.360;2022-10-30T11:01:22;15.00;;;8.50;;
6388;SDS011;3227;42.654;23.360;2022-10-30T11:03:59;13.53;;;8.07;;
6388;SDS011;3227;42.654;23.360;2022-10-30T11:06:32;13.95;;;8.43;;
6388;SDS011;3227;42.654;23.360;2022-10-30T11:09:08;15.30;;;7.88;;
6388;SDS011;3227;42.654;23.360;2022-10-30T11:11:40;10.18;;;6.55;;
6388;SDS011;3227;42.654;23.360;2022-10-30T11:14:10;13.60;;;7.05;;
6388;SDS011;3227;42.654;23.360;2022-10-30T11:16:45;13.13;;;5.78;;
6388;SDS011;3227;42.654;23.360;2022-10-30T11:19:20;8.80;;;5.38;;
6388;SDS011;3227;42.654;23.360;2022-10-30T11:21:50;10.25;;;5.03;;
6388;SDS011;3227;42.654;23.360;2022-10-30T11:24:26;11.02;;;5.43;;
6388;SDS011;3227;42.654;23.360;2022-10-30T11:26:55;9.70;;;5.18;;
6388;SDS011;3227;42.654;23.360;2022-10-30T11:29:24;9.23;;;5.07;;
6388;SDS011;3227;42.654;23.360;2022-10-30T11:32:00;16.02;;;5.60;;
6388;SDS011;3227;42.654;23.360;2022-10-30T11:34:29;8.68;;;4.55;;
6388;SDS011;3227;42.654;23.360;2022-10-30T11:37:00;9.15;;;5.03;;
6388;SDS011;3227;42.654;23.360;2022-10-30T11:39:27;11.43;;;4.38;;
6388;SDS011;3227;42.654;23.360;2022-10-30T11:42:05;8.40;;;4.93;;
6388;SDS011;3227;42.654;23.360;2022-10-30T11:44:38;9.15;;;4.70;;
6388;SDS011;3227;42.654;23.360;2022-10-30T11:47:08;11.70;;;4.43;;
6388;SDS011;3227;42.654;23.360;2022-10-30T11:49:41;11.38;;;4.70;;
6388;SDS011;3227;42.654;23.360;2022-10-30T11:52:13;8.70;;;4.63;;
6388;SDS011;3227;42.654;23.360;2022-10-30T11:54:46;9.95;;;4.57;;
6388;SDS011;3227;42.654;23.360;2022-10-30T11:57:23;9.52;;;4.32;;
6388;SDS011;3227;42.654;23.360;2022-10-30T11:59:58;10.73;;;4.60;;
6388;SDS011;3227;42.654;23.360;2022-10-30T12:02:26;10.48;;;4.30;;
6388;SDS011;3227;42.654;23.360;2022-10-30T12:04:55;9.48;;;4.25;;
6388;SDS011;3227;42.654;23.360;2022-10-30T12:07:30;12.85;;;4.65;;
6388;SDS011;3227;42.654;23.360;2022-10-30T12:09:57;9.15;;;4.70;;
6388;SDS011;3227;42.654;23.360;2022-10-30T12:12:26;10.45;;;4.70;;
6388;SDS011;3227;42.654;23.360;2022-10-30T12:14:57;8.30;;;4.10;;
6388;SDS011;3227;42.654;23.360;2022-10-30T12:17:34;9.35;;;4.40;;
6388;SDS011;3227;42.654;23.360;2022-10-30T12:20:04;14.23;;;4.90;;
6388;SDS011;3227;42.654;23.360;2022-10-30T12:22:34;9.15;;;4.07;;
6388;SDS011;3227;42.654;23.360;2022-10-30T12:25:02;11.20;;;4.40;;
6388;SDS011;3227;42.654;23.360;2022-10-30T12:27:33;12.52;;;4.72;;
6388;SDS011;3227;42.654;23.360;2022-10-30T12:30:04;8.55;;;3.97;;
6388;SDS011;3227;42.654;23.360;2022-10-30T12:32:41;10.13;;;4.53;;
6388;SDS011;3227;42.654;23.360;2022-10-30T12:35:20;8.65;;;4.18;;
6388;SDS011;3227;42.654;23.360;2022-10-30T12:37:54;10.98;;;4.75;;
6388;SDS011;3227;42.654;23.360;2022-10-30T12:40:24;9.77;;;3.92;;
6388;SDS011;3227;42.654;23.360;2022-10-30T12:42:57;11.05;;;4.10;;
6388;SDS011;3227;42.654;23.360;2022-10-30T12:45:34;11.55;;;4.10;;
6388;SDS011;3227;42.654;23.360;2022-10-30T12:48:09;7.28;;;3.80;;
6388;SDS011;3227;42.654;23.360;2022-10-30T12:50:44;12.20;;;4.00;;
6388;SDS011;3227;42.654;23.360;2022-10-30T12:53:21;9.75;;;3.78;;
6388;SDS011;3227;42.654;23.360;2022-10-30T12:55:54;7.93;;;3.55;;
6388;SDS011;3227;42.654;23.360;2022-10-30T12:58:27;9.60;;;4.03;;
6388;SDS011;3227;42.654;23.360;2022-10-30T13:00:59;11.15;;;3.83;;
6388;SDS011;3227;42.654;23.360;2022-10-30T13:03:31;8.50;;;3.58;;
6388;SDS011;3227;42.654;23.360;2022-10-30T13:06:04;10.80;;;3.60;;
6388;SDS011;3227;42.654;23.360;2022-10-30T13:08:37;7.03;;;3.20;;
6388;SDS011;3227;42.654;23.360;2022-10-30T13:11:10;10.60;;;3.13;;
6388;SDS011;3227;42.654;23.360;2022-10-30T13:13:47;7.22;;;3.20;;
6388;SDS011;3227;42.654;23.360;2022-10-30T13:16:17;8.95;;;3.22;;
6388;SDS011;3227;42.654;23.360;2022-10-30T13:18:49;7.93;;;3.17;;
6388;SDS011;3227;42.654;23.360;2022-10-30T13:21:21;11.30;;;3.20;;
6388;SDS011;3227;42.654;23.360;2022-10-30T13:23:56;6.20;;;3.10;;
6388;SDS011;3227;42.654;23.360;2022-10-30T13:26:32;10.52;;;3.10;;
6388;SDS011;3227;42.654;23.360;2022-10-30T13:29:06;7.47;;;2.50;;
6388;SDS011;3227;42.654;23.360;2022-10-30T13:31:43;7.05;;;2.78;;
6388;SDS011;3227;42.654;23.360;2022-10-30T13:34:23;7.45;;;3.00;;
6388;SDS011;3227;42.654;23.360;2022-10-30T13:36:57;8.27;;;2.65;;
6388;SDS011;3227;42.654;23.360;2022-10-30T13:39:30;6.63;;;2.70;;
6388;SDS011;3227;42.654;23.360;2022-10-30T13:42:08;9.50;;;2.70;;
6388;SDS011;3227;42.654;23.360;2022-10-30T13:44:49;9.38;;;3.00;;
6388;SDS011;3227;42.654;23.360;2022-10-30T13:47:27;10.23;;;2.85;;
6388;SDS011;3227;42.654;23.360;2022-10-30T13:50:06;6.60;;;2.70;;
6388;SDS011;3227;42.654;23.360;2022-10-30T13:52:57;11.80;;;2.55;;
6388;SDS011;3227;42.654;23.360;2022-10-30T13:55:30;9.88;;;2.80;;
6388;SDS011;3227;42.654;23.360;2022-10-30T13:58:00;10.07;;;2.80;;
6388;SDS011;3227;42.654;23.360;2022-10-30T14:00:44;8.57;;;2.60;;
6388;SDS011;3227;42.654;23.360;2022-10-30T14:06:12;8.20;;;3.03;;
6388;SDS011;3227;42.654;23.360;2022-10-30T14:08:50;12.50;;;3.13;;
6388;SDS011;3227;42.654;23.360;2022-10-30T14:11:24;9.10;;;2.80;;
6388;SDS011;3227;42.654;23.360;2022-10-30T14:13:52;8.77;;;3.25;;
6388;SDS011;3227;42.654;23.360;2022-10-30T14:16:30;9.50;;;3.00;;
6388;SDS011;3227;42.654;23.360;2022-10-30T14:19:03;9.65;;;3.17;;
6388;SDS011;3227;42.654;23.360;2022-10-30T14:21:33;7.80;;;3.00;;
6388;SDS011;3227;42.654;23.360;2022-10-30T14:24:04;11.15;;;3.35;;
6388;SDS011;3227;42.654;23.360;2022-10-30T14:26:39;11.43;;;2.92;;
6388;SDS011;3227;42.654;23.360;2022-10-30T14:35:23;11.70;;;3.20;;
6388;SDS011;3227;42.654;23.360;2022-10-30T14:38:13;7.70;;;2.90;;
6388;SDS011;3227;42.654;23.360;2022-10-30T14:41:11;10.35;;;3.03;;
6388;SDS011;3227;42.654;23.360;2022-10-30T14:44:12;9.98;;;3.00;;
6388;SDS011;3227;42.654;23.360;2022-10-30T14:46:47;11.77;;;3.35;;
6388;SDS011;3227;42.654;23.360;2022-10-30T14:49:39;15.52;;;3.33;;
6388;SDS011;3227;42.654;23.360;2022-10-30T14:52:17;11.10;;;3.47;;
6388;SDS011;3227;42.654;23.360;2022-10-30T14:54:55;13.38;;;2.80;;
6388;SDS011;3227;42.654;23.360;2022-10-30T14:57:42;9.27;;;3.30;;
6388;SDS011;3227;42.654;23.360;2022-10-30T15:00:36;9.15;;;3.35;;
6388;SDS011;3227;42.654;23.360;2022-10-30T15:03:04;16.35;;;3.55;;
6388;SDS011;3227;42.654;23.360;2022-10-30T15:05:47;10.25;;;3.67;;
6388;SDS011;3227;42.654;23.360;2022-10-30T15:08:22;7.63;;;3.20;;
6388;SDS011;3227;42.654;23.360;2022-10-30T15:13:53;10.38;;;3.55;;
6388;SDS011;3227;42.654;23.360;2022-10-30T15:16:29;9.63;;;3.50;;
6388;SDS011;3227;42.654;23.360;2022-10-30T15:19:00;8.48;;;3.60;;
6388;SDS011;3227;42.654;23.360;2022-10-30T15:21:31;9.95;;;3.70;;